createdAt,value
2018-08-03T00:01:41.603Z,84.50
2018-08-03T00:04:11.356Z,85.10
2018-08-03T00:06:41.066Z,84.80
2018-08-03T00:09:11.161Z,85.20
2018-08-03T00:11:40.891Z,85.30
2018-08-03T00:14:10.583Z,84.70
2018-08-03T00:16:40.295Z,84.20
2018-08-03T00:19:09.975Z,84.30
2018-08-03T00:21:40.235Z,85.10
2018-08-03T00:24:10.246Z,85.00
2018-08-03T00:26:40.015Z,84.60
2018-08-03T00:29:09.675Z,84.70
2018-08-03T00:31:39.698Z,84.30
2018-08-03T00:34:09.368Z,84.10
2018-08-03T00:36:39.059Z,84.90
2018-08-03T00:39:10.151Z,85.50
2018-08-03T00:41:39.826Z,85.90
2018-08-03T00:44:09.494Z,85.80
2018-08-03T00:46:39.145Z,85.80
2018-08-03T00:49:08.822Z,85.70
2018-08-03T00:51:38.474Z,86.40
2018-08-03T00:54:08.122Z,87.20
2018-08-03T00:56:37.794Z,86.50
2018-08-03T00:59:07.457Z,86.50
2018-08-03T01:01:37.138Z,86.20
2018-08-03T01:04:06.755Z,85.90
2018-08-03T01:06:36.402Z,86.30
2018-08-03T01:09:09.418Z,87.10
2018-08-03T01:11:39.079Z,86.50
2018-08-03T01:14:09.454Z,86.60
2018-08-03T01:16:40.106Z,86.70
2018-08-03T01:19:12.254Z,86.50
2018-08-03T01:21:43.628Z,86.50
2018-08-03T01:24:13.289Z,86.40
2018-08-03T01:26:42.958Z,86.00
2018-08-03T01:29:12.575Z,86.10
2018-08-03T01:31:42.245Z,85.80
2018-08-03T01:34:11.850Z,85.70
2018-08-03T01:36:41.494Z,86.00
2018-08-03T01:39:11.135Z,86.10
2018-08-03T01:41:40.787Z,86.20
2018-08-03T01:44:10.446Z,86.70
2018-08-03T01:46:40.098Z,86.80
2018-08-03T01:49:09.750Z,86.80
2018-08-03T01:51:39.750Z,87.10
2018-08-03T01:54:09.387Z,87.00
2018-08-03T01:56:39.022Z,87.10
2018-08-03T01:59:08.678Z,87.10
2018-08-03T02:01:38.509Z,87.10
2018-08-03T02:04:08.258Z,87.00
2018-08-03T02:06:37.900Z,87.00
2018-08-03T02:09:09.021Z,87.10
2018-08-03T02:11:38.734Z,87.20
2018-08-03T02:14:08.384Z,87.10
2018-08-03T02:16:38.023Z,87.10
2018-08-03T02:19:07.711Z,87.20
2018-08-03T02:21:37.335Z,87.10
2018-08-03T02:24:07.022Z,87.40
2018-08-03T02:26:36.659Z,87.60
2018-08-03T02:29:06.699Z,88.10
2018-08-03T02:31:36.338Z,88.40
2018-08-03T02:34:06.023Z,88.30
2018-08-03T02:36:35.680Z,88.30
2018-08-03T02:39:07.792Z,88.40
2018-08-03T02:41:37.696Z,88.50
2018-08-03T02:44:08.030Z,88.80
2018-08-03T02:46:37.731Z,89.10
2018-08-03T02:49:07.454Z,89.00
2018-08-03T02:51:37.343Z,88.90
2018-08-03T02:54:07.235Z,89.50
2018-08-03T02:56:36.893Z,89.40
2018-08-03T02:59:06.595Z,89.10
2018-08-03T03:01:36.286Z,89.10
2018-08-03T03:04:06.429Z,89.20
2018-08-03T03:06:36.122Z,89.10
2018-08-03T03:09:08.410Z,88.80
2018-08-03T03:11:38.484Z,88.80
2018-08-03T03:14:08.521Z,89.10
2018-08-03T03:16:38.183Z,89.10
2018-08-03T03:19:07.876Z,89.20
2018-08-03T03:21:37.523Z,89.10
2018-08-03T03:24:07.199Z,88.90
2018-08-03T03:26:36.867Z,89.00
2018-08-03T03:29:06.771Z,89.80
2018-08-03T03:31:36.424Z,90.10
2018-08-03T03:34:06.118Z,90.30
2018-08-03T03:36:35.778Z,90.50
2018-08-03T03:39:09.530Z,90.20
2018-08-03T03:41:39.207Z,90.20
2018-08-03T03:44:09.666Z,90.20
2018-08-03T03:46:39.338Z,90.10
2018-08-03T03:49:09.011Z,90.10
2018-08-03T03:51:38.650Z,90.00
2018-08-03T03:54:08.684Z,90.00
2018-08-03T03:56:38.346Z,90.00
2018-08-03T03:59:08.053Z,89.90
2018-08-03T04:01:37.914Z,90.00
2018-08-03T04:04:08.036Z,90.10
2018-08-03T04:06:37.687Z,90.40
2018-08-03T04:09:10.858Z,90.40
2018-08-03T04:11:40.958Z,90.50
2018-08-03T04:14:10.994Z,90.60
2018-08-03T04:16:40.657Z,90.70
2018-08-03T04:19:10.327Z,90.80
2018-08-03T04:24:09.300Z,90.90
2018-08-03T04:26:39.003Z,90.60
2018-08-03T04:29:14.419Z,90.70
2018-08-03T04:31:44.078Z,90.60
2018-08-03T04:34:13.742Z,90.70
2018-08-03T04:36:43.399Z,90.80
2018-08-03T04:39:13.076Z,90.90
2018-08-03T04:41:42.738Z,91.10
2018-08-03T04:44:12.419Z,91.10
2018-08-03T04:46:42.070Z,91.10
2018-08-03T04:49:11.748Z,91.10
2018-08-03T04:51:42.861Z,91.00
2018-08-03T04:54:12.558Z,90.90
2018-08-03T04:56:42.210Z,91.00
2018-08-03T04:59:11.879Z,90.80
2018-08-03T05:01:41.923Z,90.90
2018-08-03T05:04:11.574Z,90.90
2018-08-03T05:06:41.243Z,90.80
2018-08-03T05:09:12.633Z,90.80
2018-08-03T05:11:42.311Z,90.70
2018-08-03T05:14:12.043Z,91.10
2018-08-03T05:16:41.823Z,91.40
2018-08-03T05:19:11.475Z,91.10
2018-08-03T05:21:41.510Z,91.00
2018-08-03T05:24:11.184Z,90.80
2018-08-03T05:26:40.846Z,90.70
2018-08-03T05:29:10.506Z,90.70
2018-08-03T05:31:40.181Z,91.00
2018-08-03T05:34:09.274Z,90.80
2018-08-03T05:36:39.284Z,90.50
2018-08-03T05:39:10.525Z,90.70
2018-08-03T05:41:40.465Z,90.80
2018-08-03T05:44:10.152Z,91.10
2018-08-03T05:46:39.834Z,90.90
2018-08-03T05:49:09.510Z,90.60
2018-08-03T05:51:39.204Z,90.50
2018-08-03T05:54:11.859Z,90.50
2018-08-03T05:56:42.227Z,90.50
2018-08-03T06:01:41.185Z,89.90
2018-08-03T06:04:10.876Z,88.70
2018-08-03T06:06:41.070Z,87.80
2018-08-03T06:09:11.555Z,85.50
2018-08-03T06:11:41.389Z,84.80
2018-08-03T06:14:11.029Z,84.80
2018-08-03T06:19:10.296Z,82.40
2018-08-03T06:21:40.196Z,81.80
2018-08-03T06:24:10.303Z,80.30
2018-08-03T06:26:39.986Z,80.20
2018-08-03T06:29:09.664Z,79.10
2018-08-03T06:31:39.546Z,77.70
2018-08-03T06:34:09.770Z,78.00
2018-08-03T06:36:39.458Z,76.90
2018-08-03T06:39:10.137Z,75.50
2018-08-03T06:41:39.842Z,75.50
2018-08-03T06:44:09.519Z,75.80
2018-08-03T06:46:39.222Z,73.90
2018-08-03T06:49:08.884Z,72.50
2018-08-03T06:51:38.770Z,72.70
2018-08-03T06:54:08.519Z,71.60
2018-08-03T06:56:38.236Z,69.40
2018-08-03T06:59:07.916Z,70.00
2018-08-03T07:01:37.975Z,68.70
2018-08-03T07:04:07.983Z,69.20
2018-08-03T07:06:37.669Z,68.70
2018-08-03T07:09:11.222Z,69.30
2018-08-03T07:11:40.962Z,69.00
2018-08-03T07:14:10.786Z,70.00
2018-08-03T07:16:40.503Z,69.10
2018-08-03T07:19:10.579Z,68.80
2018-08-03T07:21:40.511Z,69.40
2018-08-03T07:24:10.226Z,68.60
2018-08-03T07:26:40.135Z,67.30
2018-08-03T07:29:09.995Z,66.80
2018-08-03T07:31:39.706Z,67.50
2018-08-03T07:34:09.794Z,66.50
2018-08-03T07:36:39.538Z,66.80
2018-08-03T07:39:09.594Z,66.50
2018-08-03T07:41:39.298Z,66.20
2018-08-03T07:44:09.025Z,66.10
2018-08-03T07:46:38.711Z,66.10
2018-08-03T07:49:08.439Z,65.60
2018-08-03T07:51:38.186Z,65.60
2018-08-03T07:54:08.199Z,66.50
2018-08-03T07:56:37.900Z,64.50
2018-08-03T07:59:07.970Z,63.80
2018-08-03T08:01:37.662Z,64.50
2018-08-03T08:04:07.379Z,63.50
2018-08-03T08:06:37.073Z,63.20
2018-08-03T08:09:09.815Z,64.50
2018-08-03T08:11:40.187Z,63.90
2018-08-03T08:14:10.210Z,63.10
2018-08-03T08:16:39.894Z,63.20
2018-08-03T08:19:09.570Z,63.10
2018-08-03T08:21:39.238Z,64.40
2018-08-03T08:24:08.935Z,64.40
2018-08-03T08:26:39.019Z,63.40
2018-08-03T08:29:08.728Z,62.40
2018-08-03T08:31:38.817Z,62.80
2018-08-03T08:34:08.638Z,63.30
2018-08-03T08:36:38.317Z,62.90
2018-08-03T08:39:10.530Z,62.20
2018-08-03T08:41:41.242Z,63.20
2018-08-03T08:44:11.689Z,62.50
2018-08-03T08:46:42.099Z,62.60
2018-08-03T08:49:11.821Z,61.90
2018-08-03T08:51:41.801Z,62.80
2018-08-03T08:54:11.486Z,60.30
2018-08-03T08:56:41.154Z,61.40
2018-08-03T08:59:10.834Z,62.00
2018-08-03T09:01:40.518Z,62.00
2018-08-03T09:04:10.563Z,62.80
2018-08-03T09:06:40.274Z,63.00
2018-08-03T09:09:11.344Z,61.40
2018-08-03T09:11:41.002Z,62.90
2018-08-03T09:14:11.025Z,62.30
2018-08-03T09:16:40.698Z,61.80
2018-08-03T09:19:10.382Z,62.50
2018-08-03T09:21:40.047Z,61.80
2018-08-03T09:24:10.094Z,62.10
2018-08-03T09:26:39.750Z,60.00
2018-08-03T09:29:09.430Z,61.20
2018-08-03T09:31:39.082Z,59.20
2018-08-03T09:34:08.787Z,58.80
2018-08-03T09:36:38.502Z,58.50
2018-08-03T09:39:09.296Z,57.20
2018-08-03T09:41:38.650Z,56.90
2018-08-03T09:44:08.362Z,56.00
2018-08-03T09:46:38.037Z,55.80
2018-08-03T09:49:07.840Z,56.30
2018-08-03T09:51:37.494Z,54.20
2018-08-03T09:54:06.920Z,55.50
2018-08-03T09:56:36.282Z,55.70
2018-08-03T09:59:05.758Z,55.00
2018-08-03T10:01:35.459Z,53.90
2018-08-03T10:04:08.162Z,53.70
2018-08-03T10:09:07.968Z,55.70
2018-08-03T10:11:37.626Z,54.90
2018-08-03T10:14:07.350Z,52.60
2018-08-03T10:16:40.796Z,53.30
2018-08-03T10:19:10.168Z,52.50
2018-08-03T10:21:39.534Z,52.30
2018-08-03T10:24:08.923Z,51.10
2018-08-03T10:26:38.590Z,52.20
2018-08-03T10:29:08.619Z,52.30
2018-08-03T10:31:38.287Z,52.10
2018-08-03T10:34:07.723Z,52.70
2018-08-03T10:36:37.119Z,53.00
2018-08-03T10:39:08.983Z,52.50
2018-08-03T10:41:40.206Z,52.70
2018-08-03T10:44:13.848Z,52.20
2018-08-03T10:46:44.950Z,51.00
2018-08-03T10:49:14.330Z,51.40
2018-08-03T10:51:43.688Z,51.60
2018-08-03T10:54:13.070Z,51.00
2018-08-03T10:56:42.423Z,51.10
2018-08-03T10:59:11.830Z,51.80
2018-08-03T11:01:41.596Z,51.80
2018-08-03T11:04:11.619Z,50.90
2018-08-03T11:06:41.314Z,51.40
2018-08-03T11:09:10.986Z,51.80
2018-08-03T11:11:40.670Z,51.60
2018-08-03T11:14:10.106Z,50.50
2018-08-03T11:16:39.831Z,51.90
2018-08-03T11:19:09.264Z,51.20
2018-08-03T11:21:38.639Z,51.40
2018-08-03T11:24:08.061Z,52.10
2018-08-03T11:26:37.728Z,51.00
2018-08-03T11:29:08.499Z,51.20
2018-08-03T11:31:38.017Z,50.50
2018-08-03T11:34:07.686Z,50.00
2018-08-03T11:36:37.166Z,51.40
2018-08-03T11:39:10.917Z,50.30
2018-08-03T11:41:40.315Z,49.90
2018-08-03T11:44:09.894Z,49.40
2018-08-03T11:46:39.279Z,50.10
2018-08-03T11:49:08.695Z,50.60
2018-08-03T11:51:38.063Z,49.60
2018-08-03T11:54:07.420Z,49.30
2018-08-03T11:56:37.070Z,47.70
2018-08-03T11:59:06.802Z,48.30
2018-08-03T12:01:36.579Z,48.80
2018-08-03T12:04:05.974Z,47.20
2018-08-03T12:06:35.968Z,48.20
2018-08-03T12:09:06.752Z,47.40
2018-08-03T12:11:36.607Z,46.30
2018-08-03T12:14:06.230Z,46.80
2018-08-03T12:16:36.054Z,46.30
2018-08-03T12:19:05.515Z,46.60
2018-08-03T12:21:34.902Z,46.80
2018-08-03T12:24:04.447Z,46.50
2018-08-03T12:26:33.866Z,46.90
2018-08-03T12:29:03.214Z,45.70
2018-08-03T12:31:32.621Z,46.20
2018-08-03T12:34:02.147Z,47.00
2018-08-03T12:36:31.519Z,45.60
2018-08-03T12:39:00.854Z,45.20
2018-08-03T12:41:30.291Z,45.40
2018-08-03T12:43:59.646Z,45.20
2018-08-03T12:46:29.051Z,47.10
2018-08-03T12:48:58.391Z,46.10
2018-08-03T12:51:27.793Z,45.40
2018-08-03T12:53:57.186Z,45.80
2018-08-03T12:56:26.587Z,45.60
2018-08-03T12:58:56.113Z,44.90
2018-08-03T13:03:54.459Z,45.10
2018-08-03T13:06:23.840Z,44.30
2018-08-03T13:08:53.194Z,44.40
2018-08-03T13:11:22.566Z,44.10
2018-08-03T13:13:51.958Z,44.70
2018-08-03T13:16:21.321Z,44.30
2018-08-03T13:18:50.778Z,45.00
2018-08-03T13:21:30.856Z,44.00
2018-08-03T13:24:01.165Z,43.80
2018-08-03T13:26:30.888Z,44.50
2018-08-03T13:29:00.486Z,44.20
2018-08-03T13:31:30.348Z,43.90
2018-08-03T13:33:59.742Z,43.00
2018-08-03T13:36:30.180Z,42.30
2018-08-03T13:38:59.707Z,42.50
2018-08-03T13:41:29.307Z,43.10
2018-08-03T13:43:59.351Z,43.70
2018-08-03T13:46:28.738Z,43.60
2018-08-03T13:48:58.111Z,43.30
2018-08-03T13:51:27.462Z,43.00
2018-08-03T13:53:56.854Z,42.60
2018-08-03T13:56:26.314Z,41.60
2018-08-03T13:58:56.055Z,40.80
2018-08-03T14:01:39.730Z,41.50
2018-08-03T14:04:09.077Z,41.00
2018-08-03T14:06:38.452Z,40.50
2018-08-03T14:09:08.156Z,39.80
2018-08-03T14:11:37.765Z,40.40
2018-08-03T14:14:07.163Z,39.90
2018-08-03T14:16:36.551Z,41.20
2018-08-03T14:19:06.014Z,40.00
2018-08-03T14:21:35.735Z,39.20
2018-08-03T14:24:05.179Z,39.60
2018-08-03T14:26:34.558Z,40.30
2018-08-03T14:29:04.018Z,38.50
2018-08-03T14:31:33.498Z,38.80
2018-08-03T14:34:04.809Z,38.50
2018-08-03T14:36:34.523Z,41.00
2018-08-03T14:39:06.209Z,40.30
2018-08-03T14:41:36.219Z,39.90
2018-08-03T14:44:09.166Z,40.90
2018-08-03T14:46:39.531Z,39.60
2018-08-03T14:49:08.878Z,40.30
2018-08-03T14:51:38.730Z,38.10
2018-08-03T14:54:08.110Z,38.40
2018-08-03T14:56:37.483Z,38.70
2018-08-03T14:59:07.030Z,39.30
2018-08-03T15:01:36.363Z,38.00
2018-08-03T15:04:05.821Z,37.90
2018-08-03T15:06:35.162Z,37.50
2018-08-03T15:09:07.471Z,39.30
2018-08-03T15:11:36.845Z,39.50
2018-08-03T15:14:06.350Z,39.90
2018-08-03T15:16:35.946Z,40.50
2018-08-03T15:19:05.299Z,39.60
2018-08-03T15:21:34.630Z,40.70
2018-08-03T15:24:04.039Z,40.70
2018-08-03T15:26:33.375Z,39.50
2018-08-03T15:29:02.814Z,39.30
2018-08-03T15:31:32.274Z,39.20
2018-08-03T15:34:01.622Z,39.50
2018-08-03T15:36:30.959Z,38.30
2018-08-03T15:39:00.319Z,38.10
2018-08-03T15:41:29.662Z,38.60
2018-08-03T15:43:59.042Z,38.20
2018-08-03T15:46:28.393Z,38.50
2018-08-03T15:48:57.760Z,38.40
2018-08-03T15:51:27.470Z,38.90
2018-08-03T15:53:56.945Z,39.60
2018-08-03T15:56:26.294Z,39.00
2018-08-03T15:58:55.655Z,39.50
2018-08-03T16:01:25.067Z,40.00
2018-08-03T16:03:54.429Z,40.20
2018-08-03T16:06:23.782Z,39.20
2018-08-03T16:08:53.146Z,38.70
2018-08-03T16:11:22.767Z,38.90
2018-08-03T16:13:52.121Z,39.00
2018-08-03T16:16:21.819Z,39.20
2018-08-03T16:21:20.383Z,39.50
2018-08-03T16:23:49.784Z,39.80
2018-08-03T16:26:19.506Z,38.50
2018-08-03T16:28:49.395Z,38.50
2018-08-03T16:31:18.870Z,37.80
2018-08-03T16:33:48.235Z,38.80
2018-08-03T16:36:17.586Z,38.70
2018-08-03T16:38:47.249Z,39.10
2018-08-03T16:41:16.758Z,37.90
2018-08-03T16:46:20.931Z,39.30
2018-08-03T16:48:50.305Z,38.40
2018-08-03T16:51:19.673Z,38.50
2018-08-03T16:53:49.038Z,38.80
2018-08-03T16:56:18.394Z,39.90
2018-08-03T16:58:47.759Z,40.50
2018-08-03T17:01:17.103Z,39.70
2018-08-03T17:03:46.455Z,39.00
2018-08-03T17:06:15.798Z,39.10
2018-08-03T17:08:45.205Z,39.50
2018-08-03T17:11:14.603Z,39.60
2018-08-03T17:13:44.318Z,39.60
2018-08-03T17:16:13.698Z,39.50
2018-08-03T17:18:43.058Z,40.10
2018-08-03T17:21:12.386Z,40.60
2018-08-03T17:23:42.098Z,40.50
2018-08-03T17:26:11.804Z,40.90
2018-08-03T17:28:41.210Z,40.40
2018-08-03T17:31:10.566Z,40.30
2018-08-03T17:33:40.606Z,41.30
2018-08-03T17:36:09.978Z,40.80
2018-08-03T17:38:39.323Z,41.30
2018-08-03T17:41:08.735Z,40.40
2018-08-03T17:43:38.082Z,40.00
2018-08-03T17:46:07.878Z,40.60
2018-08-03T17:48:37.202Z,40.80
2018-08-03T17:51:06.945Z,41.20
2018-08-03T17:53:36.274Z,41.50
2018-08-03T17:56:05.659Z,41.30
2018-08-03T17:58:35.179Z,41.90
2018-08-03T18:01:04.573Z,42.50
2018-08-03T18:03:33.918Z,42.60
2018-08-03T18:06:03.635Z,42.90
2018-08-03T18:08:32.970Z,43.40
2018-08-03T18:11:02.491Z,43.90
2018-08-03T18:13:31.858Z,43.90
2018-08-03T18:16:01.227Z,45.10
2018-08-03T18:18:30.601Z,44.90
2018-08-03T18:20:59.995Z,47.50
2018-08-03T18:23:29.710Z,47.60
2018-08-03T18:25:59.106Z,50.30
2018-08-03T18:28:28.907Z,51.30
2018-08-03T18:30:58.286Z,51.80
2018-08-03T18:33:27.745Z,53.40
2018-08-03T18:35:58.733Z,52.60
2018-08-03T18:38:31.046Z,52.20
2018-08-03T18:41:00.802Z,52.90
2018-08-03T18:43:35.571Z,53.60
2018-08-03T18:46:05.366Z,53.90
2018-08-03T18:48:34.858Z,54.70
2018-08-03T18:51:04.262Z,54.80
2018-08-03T18:53:35.447Z,55.30
2018-08-03T18:56:04.854Z,53.70
2018-08-03T18:58:34.269Z,54.40
2018-08-03T19:01:05.570Z,55.40
2018-08-03T19:03:35.343Z,55.90
2018-08-03T19:06:05.139Z,55.70
2018-08-03T19:08:34.503Z,56.30
2018-08-03T19:11:03.875Z,56.90
2018-08-03T19:13:33.220Z,55.90
2018-08-03T19:16:03.278Z,56.60
2018-08-03T19:18:32.759Z,56.30
2018-08-03T19:21:03.531Z,57.10
2018-08-03T19:23:33.451Z,56.30
2018-08-03T19:26:02.946Z,56.80
2018-08-03T19:28:32.286Z,57.10
2018-08-03T19:31:02.043Z,57.10
2018-08-03T19:33:31.786Z,57.20
2018-08-03T19:36:01.393Z,57.50
2018-08-03T19:38:30.862Z,57.90
2018-08-03T19:41:00.251Z,57.90
2018-08-03T19:43:29.658Z,58.10
2018-08-03T19:46:05.660Z,58.20
2018-08-03T19:48:35.184Z,58.40
2018-08-03T19:51:05.226Z,58.70
2018-08-03T19:53:34.864Z,58.90
2018-08-03T19:56:04.583Z,59.20
2018-08-03T19:58:34.294Z,59.60
2018-08-03T20:01:03.866Z,59.50
2018-08-03T20:03:33.559Z,59.50
2018-08-03T20:06:03.583Z,59.80
2018-08-03T20:08:33.230Z,60.20
2018-08-03T20:11:02.902Z,60.00
2018-08-03T20:13:32.666Z,60.30
2018-08-03T20:16:02.875Z,60.50
2018-08-03T20:18:32.665Z,60.60
2018-08-03T20:21:02.646Z,59.50
2018-08-03T20:23:32.813Z,59.80
2018-08-03T20:26:03.343Z,58.20
2018-08-03T20:28:33.243Z,58.10
2018-08-03T20:31:05.311Z,58.10
2018-08-03T20:33:38.226Z,58.70
2018-08-03T20:36:07.930Z,58.90
2018-08-03T20:38:37.738Z,58.50
2018-08-03T20:41:07.818Z,58.20
2018-08-03T20:43:40.808Z,58.60
2018-08-03T20:46:15.524Z,58.00
2018-08-03T20:48:45.243Z,59.00
2018-08-03T20:51:14.942Z,59.60
2018-08-03T20:53:44.678Z,60.70
2018-08-03T20:56:15.796Z,61.60
2018-08-03T20:58:51.039Z,62.20
2018-08-03T21:01:21.050Z,61.70
2018-08-03T21:03:51.134Z,62.00
2018-08-03T21:06:20.802Z,63.20
2018-08-03T21:08:50.482Z,63.30
2018-08-03T21:11:20.165Z,62.10
2018-08-03T21:13:49.882Z,63.30
2018-08-03T21:16:19.579Z,62.90
2018-08-03T21:18:49.259Z,62.50
2018-08-03T21:21:18.957Z,62.00
2018-08-03T21:26:17.922Z,61.40
2018-08-03T21:28:47.600Z,61.50
2018-08-03T21:31:17.270Z,61.70
2018-08-03T21:33:47.025Z,62.10
2018-08-03T21:36:16.674Z,62.30
2018-08-03T21:38:46.394Z,62.80
2018-08-03T21:41:16.059Z,62.70
2018-08-03T21:43:45.753Z,63.90
2018-08-03T21:46:15.622Z,62.90
2018-08-03T21:48:45.310Z,63.10
2018-08-03T21:51:14.989Z,64.10
2018-08-03T21:53:44.730Z,63.60
2018-08-03T21:56:17.296Z,63.60
2018-08-03T21:58:47.547Z,63.80
2018-08-03T22:01:17.555Z,63.90
2018-08-03T22:03:47.262Z,64.20
2018-08-03T22:06:16.910Z,64.20
2018-08-03T22:08:46.953Z,64.40
2018-08-03T22:11:16.630Z,64.60
2018-08-03T22:13:46.351Z,64.60
2018-08-03T22:16:16.022Z,64.90
2018-08-03T22:18:45.749Z,65.10
2018-08-03T22:21:15.598Z,65.40
2018-08-03T22:23:45.285Z,65.60
2018-08-03T22:26:14.958Z,65.90
2018-08-03T22:28:44.635Z,66.00
2018-08-03T22:31:14.471Z,66.40
2018-08-03T22:33:44.190Z,66.30
2018-08-03T22:36:14.214Z,66.30
2018-08-03T22:38:44.016Z,66.60
2018-08-03T22:41:14.130Z,67.40
2018-08-03T22:43:43.930Z,67.10
2018-08-03T22:46:13.614Z,66.70
2018-08-03T22:48:43.333Z,66.60
2018-08-03T22:51:13.442Z,66.70
2018-08-03T22:53:43.144Z,67.10
2018-08-03T22:56:12.814Z,67.10
2018-08-03T22:58:45.077Z,67.00
2018-08-03T23:01:15.394Z,66.90
2018-08-03T23:03:45.098Z,67.20
2018-08-03T23:06:14.785Z,67.40
2018-08-03T23:08:44.474Z,67.70
2018-08-03T23:11:14.146Z,67.70
2018-08-03T23:13:43.879Z,68.00
2018-08-03T23:16:13.565Z,69.00
2018-08-03T23:18:43.246Z,68.70
2018-08-03T23:21:12.924Z,69.70
2018-08-03T23:23:42.617Z,69.50
2018-08-03T23:26:12.287Z,68.40
2018-08-03T23:28:42.331Z,68.30
2018-08-03T23:31:11.998Z,68.40
2018-08-03T23:33:41.682Z,68.60
2018-08-03T23:36:11.719Z,68.80
2018-08-03T23:38:41.413Z,69.30
2018-08-03T23:41:11.432Z,69.40
2018-08-03T23:43:46.834Z,69.30
2018-08-03T23:46:22.202Z,69.60
2018-08-03T23:48:51.946Z,69.90
2018-08-03T23:51:21.675Z,70.00
2018-08-03T23:53:51.378Z,70.10
2018-08-03T23:56:21.111Z,70.00
2018-08-03T23:58:50.794Z,69.80
